Terminal Aerodrome Forecast
Issued by NWS Tuscon, AZ

Home | Current Version | Previous Version | Text Only | Print | Product List | Glossary On
Versions: 1 2 3 4 5 6 7 8 9 10 11 12
420
FTUS45 KTWC 081135
TAFDUG
TAF
KDUG 081135Z 0812/0912 01006KT P6SM SKC
     FM081700 11008KT P6SM SKC
     FM082200 08008KT P6SM FEW070
     FM090400 03005KT P6SM SKC
     FM090800 VRB04KT P6SM SCT250=

USA.gov is the U.S. government's official web portal to all federal, state and local government web resources and services.